sensor_id;sensor_type;location;lat;lon;timestamp;pressure;altitude;pressure_sealevel;temperature;humidity
63321;BME280;49449;48.800;9.534;2023-05-07T00:01:05;98473.28;;;15.27;40.73
63321;BME280;49449;48.800;9.534;2023-05-07T00:03:35;98473.75;;;15.24;40.65
63321;BME280;49449;48.800;9.534;2023-05-07T00:06:04;98470.63;;;15.27;40.62
63321;BME280;49449;48.800;9.534;2023-05-07T00:08:32;98468.44;;;15.24;40.31
63321;BME280;49449;48.800;9.534;2023-05-07T00:11:00;98464.69;;;15.20;40.39
63321;BME280;49449;48.800;9.534;2023-05-07T00:13:28;98469.75;;;15.17;40.79
63321;BME280;49449;48.800;9.534;2023-05-07T00:15:57;98464.66;;;15.10;40.67
63321;BME280;49449;48.800;9.534;2023-05-07T00:18:25;98465.47;;;15.15;40.56
63321;BME280;49449;48.800;9.534;2023-05-07T00:20:54;98458.53;;;15.14;40.65
63321;BME280;49449;48.800;9.534;2023-05-07T00:23:23;98464.41;;;15.17;40.78
63321;BME280;49449;48.800;9.534;2023-05-07T00:25:50;98456.94;;;15.13;40.80
63321;BME280;49449;48.800;9.534;2023-05-07T00:28:19;98456.94;;;15.13;40.67
63321;BME280;49449;48.800;9.534;2023-05-07T00:30:47;98463.56;;;15.11;40.85
63321;BME280;49449;48.800;9.534;2023-05-07T00:33:15;98456.13;;;15.13;40.57
63321;BME280;49449;48.800;9.534;2023-05-07T00:35:43;98459.88;;;15.12;40.82
63321;BME280;49449;48.800;9.534;2023-05-07T00:38:12;98450.25;;;15.11;40.83
63321;BME280;49449;48.800;9.534;2023-05-07T00:40:40;98457.75;;;15.14;40.55
63321;BME280;49449;48.800;9.534;2023-05-07T00:43:08;98452.13;;;15.10;40.43
63321;BME280;49449;48.800;9.534;2023-05-07T00:45:36;98447.88;;;15.09;40.44
63321;BME280;49449;48.800;9.534;2023-05-07T00:48:04;98444.38;;;15.04;40.54
63321;BME280;49449;48.800;9.534;2023-05-07T00:50:32;98447.88;;;15.04;40.78
63321;BME280;49449;48.800;9.534;2023-05-07T00:53:00;98447.88;;;15.04;40.88
63321;BME280;49449;48.800;9.534;2023-05-07T00:55:30;98440.41;;;15.01;40.46
63321;BME280;49449;48.800;9.534;2023-05-07T00:57:59;98434.53;;;14.99;40.95
63321;BME280;49449;48.800;9.534;2023-05-07T01:00:27;98432.66;;;14.94;40.50
63321;BME280;49449;48.800;9.534;2023-05-07T01:02:55;98431.84;;;14.94;40.94
63321;BME280;49449;48.800;9.534;2023-05-07T01:05:24;98429.16;;;14.89;40.93
63321;BME280;49449;48.800;9.534;2023-05-07T01:07:54;98425.72;;;14.88;40.84
63321;BME280;49449;48.800;9.534;2023-05-07T01:10:22;98422.75;;;14.85;40.81
63321;BME280;49449;48.800;9.534;2023-05-07T01:12:53;98425.41;;;14.85;40.71
63321;BME280;49449;48.800;9.534;2023-05-07T01:15:21;98431.25;;;14.82;41.08
63321;BME280;49449;48.800;9.534;2023-05-07T01:17:49;98437.09;;;14.78;40.88
63321;BME280;49449;48.800;9.534;2023-05-07T01:20:18;98430.72;;;14.80;40.95
63321;BME280;49449;48.800;9.534;2023-05-07T01:22:48;98439.19;;;14.76;40.94
63321;BME280;49449;48.800;9.534;2023-05-07T01:25:17;98435.75;;;14.76;41.16
63321;BME280;49449;48.800;9.534;2023-05-07T01:27:46;98438.63;;;14.69;41.07
63321;BME280;49449;48.800;9.534;2023-05-07T01:30:14;98442.34;;;14.68;41.28
63321;BME280;49449;48.800;9.534;2023-05-07T01:32:48;98436.22;;;14.68;40.86
63321;BME280;49449;48.800;9.534;2023-05-07T01:35:22;98433.56;;;14.68;41.18
63321;BME280;49449;48.800;9.534;2023-05-07T01:37:52;98435.16;;;14.64;40.97
63321;BME280;49449;48.800;9.534;2023-05-07T01:40:20;98431.66;;;14.63;41.06
63321;BME280;49449;48.800;9.534;2023-05-07T01:42:48;98428.75;;;14.65;41.19
63321;BME280;49449;48.800;9.534;2023-05-07T01:45:16;98434.56;;;14.62;41.32
63321;BME280;49449;48.800;9.534;2023-05-07T01:47:44;98432.38;;;14.48;41.57
63321;BME280;49449;48.800;9.534;2023-05-07T01:50:13;98429.38;;;14.39;41.48
63321;BME280;49449;48.800;9.534;2023-05-07T01:52:43;98429.38;;;14.39;41.63
63321;BME280;49449;48.800;9.534;2023-05-07T01:55:13;98420.88;;;14.43;41.40
63321;BME280;49449;48.800;9.534;2023-05-07T01:57:41;98425.38;;;14.42;41.57
63321;BME280;49449;48.800;9.534;2023-05-07T02:00:12;98434.44;;;14.41;41.59
63321;BME280;49449;48.800;9.534;2023-05-07T02:02:39;98422.97;;;14.40;41.71
63321;BME280;49449;48.800;9.534;2023-05-07T02:05:08;98428.28;;;14.40;41.40
63321;BME280;49449;48.800;9.534;2023-05-07T02:07:35;98423.75;;;14.36;41.42
63321;BME280;49449;48.800;9.534;2023-05-07T02:10:04;98420.03;;;14.37;41.75
63321;BME280;49449;48.800;9.534;2023-05-07T02:12:34;98430.38;;;14.33;41.44
63321;BME280;49449;48.800;9.534;2023-05-07T02:15:02;98423.94;;;14.24;41.80
63321;BME280;49449;48.800;9.534;2023-05-07T02:17:32;98424.13;;;14.17;41.78
63321;BME280;49449;48.800;9.534;2023-05-07T02:20:00;98427.56;;;14.13;41.72
63321;BME280;49449;48.800;9.534;2023-05-07T02:22:28;98421.44;;;14.12;41.86
63321;BME280;49449;48.800;9.534;2023-05-07T02:24:57;98422.00;;;14.14;41.68
63321;BME280;49449;48.800;9.534;2023-05-07T02:27:26;98429.09;;;14.04;42.23
63321;BME280;49449;48.800;9.534;2023-05-07T02:29:56;98424.09;;;14.07;41.99
63321;BME280;49449;48.800;9.534;2023-05-07T02:32:23;98428.31;;;14.08;41.87
63321;BME280;49449;48.800;9.534;2023-05-07T02:34:51;98429.34;;;14.02;41.98
63321;BME280;49449;48.800;9.534;2023-05-07T02:37:20;98437.81;;;13.99;42.08
63321;BME280;49449;48.800;9.534;2023-05-07T02:39:48;98435.91;;;13.94;42.08
63321;BME280;49449;48.800;9.534;2023-05-07T02:42:16;98439.09;;;13.91;42.06
63321;BME280;49449;48.800;9.534;2023-05-07T02:44:44;98440.63;;;13.87;42.16
63321;BME280;49449;48.800;9.534;2023-05-07T02:47:15;98432.41;;;13.89;42.12
63321;BME280;49449;48.800;9.534;2023-05-07T02:49:43;98433.91;;;13.79;42.09
63321;BME280;49449;48.800;9.534;2023-05-07T02:52:11;98426.69;;;13.75;42.15
63321;BME280;49449;48.800;9.534;2023-05-07T02:54:39;98426.91;;;13.68;42.10
63321;BME280;49449;48.800;9.534;2023-05-07T02:57:07;98426.88;;;13.63;42.12
63321;BME280;49449;48.800;9.534;2023-05-07T02:59:34;98429.53;;;13.63;42.26
63321;BME280;49449;48.800;9.534;2023-05-07T03:02:03;98428.22;;;13.66;42.12
63321;BME280;49449;48.800;9.534;2023-05-07T03:04:32;98431.66;;;13.66;42.23
63321;BME280;49449;48.800;9.534;2023-05-07T03:07:00;98431.09;;;13.64;42.31
63321;BME280;49449;48.800;9.534;2023-05-07T03:09:28;98434.31;;;13.66;42.02
63321;BME280;49449;48.800;9.534;2023-05-07T03:11:57;98434.56;;;13.64;41.93
63321;BME280;49449;48.800;9.534;2023-05-07T03:14:25;98428.50;;;13.47;42.18
63321;BME280;49449;48.800;9.534;2023-05-07T03:16:53;98427.34;;;13.38;42.51
63321;BME280;49449;48.800;9.534;2023-05-07T03:19:20;98427.91;;;13.40;42.34
63321;BME280;49449;48.800;9.534;2023-05-07T03:21:50;98425.81;;;13.42;42.53
63321;BME280;49449;48.800;9.534;2023-05-07T03:24:18;98416.84;;;13.48;42.20
63321;BME280;49449;48.800;9.534;2023-05-07T03:26:46;98421.13;;;13.49;41.96
63321;BME280;49449;48.800;9.534;2023-05-07T03:29:14;98417.41;;;13.50;42.14
63321;BME280;49449;48.800;9.534;2023-05-07T03:31:42;98409.44;;;13.50;42.22
63321;BME280;49449;48.800;9.534;2023-05-07T03:34:11;98410.81;;;13.53;41.99
63321;BME280;49449;48.800;9.534;2023-05-07T03:36:39;98402.03;;;13.52;42.03
63321;BME280;49449;48.800;9.534;2023-05-07T03:39:08;98405.19;;;13.49;42.16
63321;BME280;49449;48.800;9.534;2023-05-07T03:41:36;98413.94;;;13.50;41.97
63321;BME280;49449;48.800;9.534;2023-05-07T03:44:04;98415.75;;;13.44;42.03
63321;BME280;49449;48.800;9.534;2023-05-07T03:46:33;98417.84;;;13.42;42.00
63321;BME280;49449;48.800;9.534;2023-05-07T03:49:01;98415.69;;;13.39;42.03
63321;BME280;49449;48.800;9.534;2023-05-07T03:51:30;98425.25;;;13.40;42.04
63321;BME280;49449;48.800;9.534;2023-05-07T03:53:57;98429.75;;;13.39;41.99
63321;BME280;49449;48.800;9.534;2023-05-07T03:56:26;98435.31;;;13.38;42.07
63321;BME280;49449;48.800;9.534;2023-05-07T03:58:54;98440.47;;;13.22;42.19
63321;BME280;49449;48.800;9.534;2023-05-07T04:01:24;98441.75;;;13.20;42.23
63321;BME280;49449;48.800;9.534;2023-05-07T04:03:52;98433.28;;;13.23;42.10
63321;BME280;49449;48.800;9.534;2023-05-07T04:06:20;98433.84;;;13.25;42.04
63321;BME280;49449;48.800;9.534;2023-05-07T04:08:48;98430.94;;;13.26;42.17
63321;BME280;49449;48.800;9.534;2023-05-07T04:11:16;98436.25;;;13.26;42.04
63321;BME280;49449;48.800;9.534;2023-05-07T04:13:45;98437.84;;;13.27;42.12
63321;BME280;49449;48.800;9.534;2023-05-07T04:16:13;98437.84;;;13.27;42.03
63321;BME280;49449;48.800;9.534;2023-05-07T04:18:41;98441.06;;;13.30;42.04
63321;BME280;49449;48.800;9.534;2023-05-07T04:21:14;98442.34;;;13.27;42.13
63321;BME280;49449;48.800;9.534;2023-05-07T04:23:42;98438.91;;;13.26;42.26
63321;BME280;49449;48.800;9.534;2023-05-07T04:26:11;98443.16;;;13.27;42.04
63321;BME280;49449;48.800;9.534;2023-05-07T04:28:39;98446.38;;;13.30;42.04
63321;BME280;49449;48.800;9.534;2023-05-07T04:31:11;98443.78;;;13.35;41.98
63321;BME280;49449;48.800;9.534;2023-05-07T04:33:39;98454.19;;;13.41;41.71
63321;BME280;49449;48.800;9.534;2023-05-07T04:36:07;98440.19;;;13.46;41.84
63321;BME280;49449;48.800;9.534;2023-05-07T04:38:35;98448.75;;;13.53;41.82
63321;BME280;49449;48.800;9.534;2023-05-07T04:41:04;98445.59;;;13.56;41.78
63321;BME280;49449;48.800;9.534;2023-05-07T04:43:32;98444.63;;;13.62;41.49
63321;BME280;49449;48.800;9.534;2023-05-07T04:46:00;98444.13;;;13.66;41.17
63321;BME280;49449;48.800;9.534;2023-05-07T04:48:29;98447.09;;;13.69;41.34
63321;BME280;49449;48.800;9.534;2023-05-07T04:50:57;98450.59;;;13.75;41.19
63321;BME280;49449;48.800;9.534;2023-05-07T04:53:25;98453.06;;;13.81;41.18
63321;BME280;49449;48.800;9.534;2023-05-07T04:55:56;98460.81;;;13.88;41.19
63321;BME280;49449;48.800;9.534;2023-05-07T04:58:24;98448.63;;;13.92;40.98
63321;BME280;49449;48.800;9.534;2023-05-07T05:00:52;98457.75;;;14.01;40.89
63321;BME280;49449;48.800;9.534;2023-05-07T05:03:19;98468.66;;;14.05;40.66
63321;BME280;49449;48.800;9.534;2023-05-07T05:05:51;98466.28;;;14.04;40.48
63321;BME280;49449;48.800;9.534;2023-05-07T05:08:19;98466.00;;;14.05;40.38
63321;BME280;49449;48.800;9.534;2023-05-07T05:10:49;98473.97;;;14.05;40.70
63321;BME280;49449;48.800;9.534;2023-05-07T05:13:17;98478.69;;;13.98;40.48
63321;BME280;49449;48.800;9.534;2023-05-07T05:15:45;98477.13;;;13.97;40.74
63321;BME280;49449;48.800;9.534;2023-05-07T05:18:13;98480.81;;;13.96;40.58
63321;BME280;49449;48.800;9.534;2023-05-07T05:20:41;98480.81;;;13.96;40.96
63321;BME280;49449;48.800;9.534;2023-05-07T05:23:12;98481.88;;;13.95;40.88
63321;BME280;49449;48.800;9.534;2023-05-07T05:25:40;98478.16;;;13.96;40.96
63321;BME280;49449;48.800;9.534;2023-05-07T05:28:08;98483.72;;;13.94;41.13
63321;BME280;49449;48.800;9.534;2023-05-07T05:30:37;98484.00;;;13.98;41.06
63321;BME280;49449;48.800;9.534;2023-05-07T05:33:05;98483.75;;;13.99;40.98
63321;BME280;49449;48.800;9.534;2023-05-07T05:35:32;98484.56;;;14.00;40.77
63321;BME280;49449;48.800;9.534;2023-05-07T05:38:02;98484.06;;;14.03;40.84
63321;BME280;49449;48.800;9.534;2023-05-07T05:40:34;98493.69;;;14.09;40.67
63321;BME280;49449;48.800;9.534;2023-05-07T05:43:01;98492.53;;;14.27;40.66
63321;BME280;49449;48.800;9.534;2023-05-07T05:45:29;98483.69;;;14.49;40.60
63321;BME280;49449;48.800;9.534;2023-05-07T05:47:57;98473.44;;;14.68;40.35
63321;BME280;49449;48.800;9.534;2023-05-07T05:50:25;98479.16;;;14.87;40.15
63321;BME280;49449;48.800;9.534;2023-05-07T05:52:53;98473.41;;;15.05;40.29
63321;BME280;49449;48.800;9.534;2023-05-07T05:55:21;98479.59;;;15.21;39.86
63321;BME280;49449;48.800;9.534;2023-05-07T05:57:51;98478.09;;;15.41;39.86
63321;BME280;49449;48.800;9.534;2023-05-07T06:00:18;98480.81;;;15.51;39.12
63321;BME280;49449;48.800;9.534;2023-05-07T06:02:48;98486.97;;;15.62;38.86
63321;BME280;49449;48.800;9.534;2023-05-07T06:05:16;98485.66;;;15.75;38.49
63321;BME280;49449;48.800;9.534;2023-05-07T06:07:44;98474.25;;;15.89;38.45
63321;BME280;49449;48.800;9.534;2023-05-07T06:10:13;98482.78;;;16.02;38.44
63321;BME280;49449;48.800;9.534;2023-05-07T06:12:42;98479.09;;;16.13;38.08
63321;BME280;49449;48.800;9.534;2023-05-07T06:15:12;98480.97;;;16.23;38.06
63321;BME280;49449;48.800;9.534;2023-05-07T06:17:40;98482.56;;;16.39;38.13
63321;BME280;49449;48.800;9.534;2023-05-07T06:20:08;98484.69;;;16.58;37.79
63321;BME280;49449;48.800;9.534;2023-05-07T06:22:36;98487.06;;;16.80;38.03
63321;BME280;49449;48.800;9.534;2023-05-07T06:25:04;98478.25;;;16.95;37.93
63321;BME280;49449;48.800;9.534;2023-05-07T06:27:32;98482.22;;;17.02;37.69
63321;BME280;49449;48.800;9.534;2023-05-07T06:30:00;98476.03;;;17.12;37.79
63321;BME280;49449;48.800;9.534;2023-05-07T06:32:30;98482.69;;;17.25;37.41
63321;BME280;49449;48.800;9.534;2023-05-07T06:34:58;98491.75;;;17.24;37.32
63321;BME280;49449;48.800;9.534;2023-05-07T06:37:26;98483.22;;;17.22;37.32
63321;BME280;49449;48.800;9.534;2023-05-07T06:39:54;98485.91;;;17.22;37.34
63321;BME280;49449;48.800;9.534;2023-05-07T06:42:23;98491.22;;;17.27;36.88
63321;BME280;49449;48.800;9.534;2023-05-07T06:44:52;98480.81;;;17.31;36.76
63321;BME280;49449;48.800;9.534;2023-05-07T06:47:21;98487.44;;;17.38;36.95
63321;BME280;49449;48.800;9.534;2023-05-07T06:49:50;98485.84;;;17.42;36.68
63321;BME280;49449;48.800;9.534;2023-05-07T06:52:18;98486.84;;;17.52;36.90
63321;BME280;49449;48.800;9.534;2023-05-07T06:54:46;98485.50;;;17.59;36.92
63321;BME280;49449;48.800;9.534;2023-05-07T06:57:14;98489.72;;;17.71;36.89
63321;BME280;49449;48.800;9.534;2023-05-07T06:59:42;98494.69;;;17.88;36.74
63321;BME280;49449;48.800;9.534;2023-05-07T07:02:10;98484.16;;;18.07;36.27
63321;BME280;49449;48.800;9.534;2023-05-07T07:04:39;98482.69;;;18.25;36.09
63321;BME280;49449;48.800;9.534;2023-05-07T07:07:09;98484.94;;;18.47;35.77
63321;BME280;49449;48.800;9.534;2023-05-07T07:09:37;98483.44;;;18.65;35.18
63321;BME280;49449;48.800;9.534;2023-05-07T07:12:05;98480.84;;;18.84;35.46
63321;BME280;49449;48.800;9.534;2023-05-07T07:14:35;98477.50;;;18.97;35.01
63321;BME280;49449;48.800;9.534;2023-05-07T07:17:03;98476.72;;;19.21;35.06
63321;BME280;49449;48.800;9.534;2023-05-07T07:19:31;98475.16;;;19.39;34.51
63321;BME280;49449;48.800;9.534;2023-05-07T07:21:59;98472.25;;;19.54;33.62
63321;BME280;49449;48.800;9.534;2023-05-07T07:24:28;98466.00;;;19.40;32.79
63321;BME280;49449;48.800;9.534;2023-05-07T07:26:56;98464.22;;;19.54;32.32
63321;BME280;49449;48.800;9.534;2023-05-07T07:29:24;98463.47;;;19.73;32.32
63321;BME280;49449;48.800;9.534;2023-05-07T07:31:53;98461.44;;;19.83;31.85
63321;BME280;49449;48.800;9.534;2023-05-07T07:34:21;98458.69;;;19.89;32.06
63321;BME280;49449;48.800;9.534;2023-05-07T07:36:50;98455.94;;;19.94;32.00
63321;BME280;49449;48.800;9.534;2023-05-07T07:39:17;98469.84;;;19.96;31.75
63321;BME280;49449;48.800;9.534;2023-05-07T07:41:47;98456.72;;;19.94;31.95
63321;BME280;49449;48.800;9.534;2023-05-07T07:44:14;98461.44;;;20.02;31.39
63321;BME280;49449;48.800;9.534;2023-05-07T07:46:42;98458.09;;;20.24;31.87
63321;BME280;49449;48.800;9.534;2023-05-07T07:49:10;98458.25;;;20.33;31.88
63321;BME280;49449;48.800;9.534;2023-05-07T07:51:38;98468.03;;;20.43;31.62
63321;BME280;49449;48.800;9.534;2023-05-07T07:54:06;98461.69;;;20.53;31.96
63321;BME280;49449;48.800;9.534;2023-05-07T07:56:34;98461.50;;;20.63;31.42
63321;BME280;49449;48.800;9.534;2023-05-07T07:59:05;98461.31;;;20.59;31.72
63321;BME280;49449;48.800;9.534;2023-05-07T08:01:33;98464.31;;;20.86;31.55
63321;BME280;49449;48.800;9.534;2023-05-07T08:04:00;98459.53;;;20.83;31.29
63321;BME280;49449;48.800;9.534;2023-05-07T08:06:29;98469.31;;;20.92;31.17
63321;BME280;49449;48.800;9.534;2023-05-07T08:08:59;98464.16;;;21.10;30.86
63321;BME280;49449;48.800;9.534;2023-05-07T08:11:27;98458.63;;;21.43;30.89
63321;BME280;49449;48.800;9.534;2023-05-07T08:13:56;98455.94;;;21.57;30.91
63321;BME280;49449;48.800;9.534;2023-05-07T08:16:25;98471.59;;;21.54;30.01
63321;BME280;49449;48.800;9.534;2023-05-07T08:18:56;98465.78;;;21.47;29.70
63321;BME280;49449;48.800;9.534;2023-05-07T08:21:24;98465.59;;;21.58;29.48
63321;BME280;49449;48.800;9.534;2023-05-07T08:23:52;98458.78;;;21.74;29.87
63321;BME280;49449;48.800;9.534;2023-05-07T08:26:20;98462.41;;;21.92;29.91
63321;BME280;49449;48.800;9.534;2023-05-07T08:28:48;98453.31;;;22.02;28.97
63321;BME280;49449;48.800;9.534;2023-05-07T08:31:16;98457.31;;;21.90;28.74
63321;BME280;49449;48.800;9.534;2023-05-07T08:33:45;98452.88;;;22.08;29.14
63321;BME280;49449;48.800;9.534;2023-05-07T08:36:14;98452.19;;;22.03;28.41
63321;BME280;49449;48.800;9.534;2023-05-07T08:38:42;98450.03;;;22.13;29.04
63321;BME280;49449;48.800;9.534;2023-05-07T08:41:12;98446.97;;;22.20;28.00
63321;BME280;49449;48.800;9.534;2023-05-07T08:43:41;98448.88;;;22.20;28.03
63321;BME280;49449;48.800;9.534;2023-05-07T08:46:09;98443.47;;;22.20;28.06
63321;BME280;49449;48.800;9.534;2023-05-07T08:48:38;98446.34;;;22.23;27.86
63321;BME280;49449;48.800;9.534;2023-05-07T08:51:12;98450.66;;;22.33;27.47
63321;BME280;49449;48.800;9.534;2023-05-07T08:53:42;98447.38;;;22.36;27.44
63321;BME280;49449;48.800;9.534;2023-05-07T08:56:10;98450.88;;;22.37;27.74
63321;BME280;49449;48.800;9.534;2023-05-07T08:58:38;98454.28;;;22.51;27.55
63321;BME280;49449;48.800;9.534;2023-05-07T09:01:07;98456.66;;;22.61;27.23
63321;BME280;49449;48.800;9.534;2023-05-07T09:03:38;98449.41;;;22.62;26.67
63321;BME280;49449;48.800;9.534;2023-05-07T09:06:07;98462.00;;;22.44;26.70
63321;BME280;49449;48.800;9.534;2023-05-07T09:08:36;98455.97;;;22.16;27.16
63321;BME280;49449;48.800;9.534;2023-05-07T09:11:04;98447.31;;;22.27;27.87
63321;BME280;49449;48.800;9.534;2023-05-07T09:13:32;98454.72;;;22.22;27.56
63321;BME280;49449;48.800;9.534;2023-05-07T09:16:10;98445.09;;;22.21;27.80
63321;BME280;49449;48.800;9.534;2023-05-07T09:18:43;98444.75;;;22.22;27.79
63321;BME280;49449;48.800;9.534;2023-05-07T09:21:14;98449.22;;;22.27;27.55
63321;BME280;49449;48.800;9.534;2023-05-07T09:23:43;98445.09;;;22.29;27.14
63321;BME280;49449;48.800;9.534;2023-05-07T09:26:11;98446.75;;;22.39;26.34
63321;BME280;49449;48.800;9.534;2023-05-07T09:28:41;98456.09;;;22.42;26.37
63321;BME280;49449;48.800;9.534;2023-05-07T09:31:10;98454.78;;;22.30;25.93
63321;BME280;49449;48.800;9.534;2023-05-07T09:33:38;98438.06;;;22.42;26.67
63321;BME280;49449;48.800;9.534;2023-05-07T09:36:09;98435.16;;;22.30;26.45
63321;BME280;49449;48.800;9.534;2023-05-07T09:38:39;98436.25;;;22.29;26.32
63321;BME280;49449;48.800;9.534;2023-05-07T09:41:09;98441.16;;;22.27;26.34
63321;BME280;49449;48.800;9.534;2023-05-07T09:43:38;98438.38;;;21.73;27.26
63321;BME280;49449;48.800;9.534;2023-05-07T09:46:08;98438.63;;;21.63;26.74
63321;BME280;49449;48.800;9.534;2023-05-07T09:48:37;98429.41;;;22.00;26.99
63321;BME280;49449;48.800;9.534;2023-05-07T09:51:22;98427.94;;;22.17;26.78
63321;BME280;49449;48.800;9.534;2023-05-07T09:53:56;98424.66;;;22.20;26.17
63321;BME280;49449;48.800;9.534;2023-05-07T09:56:26;98427.53;;;22.23;26.69
63321;BME280;49449;48.800;9.534;2023-05-07T09:58:56;98429.34;;;22.45;26.47
63321;BME280;49449;48.800;9.534;2023-05-07T10:01:26;98425.41;;;22.43;26.54
63321;BME280;49449;48.800;9.534;2023-05-07T10:03:55;98423.22;;;22.22;26.35
63321;BME280;49449;48.800;9.534;2023-05-07T10:06:25;98427.66;;;22.18;26.13
63321;BME280;49449;48.800;9.534;2023-05-07T10:08:55;98434.03;;;22.31;26.69
63321;BME280;49449;48.800;9.534;2023-05-07T10:11:26;98432.75;;;22.51;26.29
63321;BME280;49449;48.800;9.534;2023-05-07T10:13:54;98427.16;;;22.16;26.48
63321;BME280;49449;48.800;9.534;2023-05-07T10:16:23;98425.75;;;22.19;26.55
63321;BME280;49449;48.800;9.534;2023-05-07T10:18:52;98429.94;;;22.11;26.88
63321;BME280;49449;48.800;9.534;2023-05-07T10:21:23;98424.94;;;22.18;26.27
63321;BME280;49449;48.800;9.534;2023-05-07T10:23:56;98419.56;;;22.18;26.48
63321;BME280;49449;48.800;9.534;2023-05-07T10:26:27;98423.19;;;21.91;26.75
63321;BME280;49449;48.800;9.534;2023-05-07T10:29:01;98419.91;;;22.03;26.62
63321;BME280;49449;48.800;9.534;2023-05-07T10:31:55;98408.69;;;22.23;26.64
63321;BME280;49449;48.800;9.534;2023-05-07T10:34:32;98412.09;;;22.15;26.70
63321;BME280;49449;48.800;9.534;2023-05-07T10:37:00;98419.00;;;21.85;26.96
63321;BME280;49449;48.800;9.534;2023-05-07T10:39:32;98404.91;;;22.02;26.84
63321;BME280;49449;48.800;9.534;2023-05-07T10:42:09;98404.59;;;21.44;27.11
63321;BME280;49449;48.800;9.534;2023-05-07T10:44:38;98402.09;;;21.84;26.78
63321;BME280;49449;48.800;9.534;2023-05-07T10:47:07;98398.66;;;22.15;26.50
63321;BME280;49449;48.800;9.534;2023-05-07T10:49:37;98398.53;;;22.20;26.43
63321;BME280;49449;48.800;9.534;2023-05-07T10:52:14;98399.75;;;22.45;26.22
63321;BME280;49449;48.800;9.534;2023-05-07T10:55:21;98390.84;;;22.36;26.37
63321;BME280;49449;48.800;9.534;2023-05-07T10:57:53;98392.28;;;22.34;26.97
63321;BME280;49449;48.800;9.534;2023-05-07T11:00:41;98391.84;;;22.40;26.51
63321;BME280;49449;48.800;9.534;2023-05-07T11:03:10;98401.66;;;22.45;26.75
63321;BME280;49449;48.800;9.534;2023-05-07T11:05:38;98394.75;;;22.61;26.67
63321;BME280;49449;48.800;9.534;2023-05-07T11:08:07;98388.25;;;23.02;26.20
63321;BME280;49449;48.800;9.534;2023-05-07T11:10:50;98406.47;;;22.57;25.62
63321;BME280;49449;48.800;9.534;2023-05-07T11:13:45;98388.06;;;22.81;25.21
63321;BME280;49449;48.800;9.534;2023-05-07T11:16:18;98388.59;;;23.10;25.63
63321;BME280;49449;48.800;9.534;2023-05-07T11:18:51;98382.09;;;23.28;25.20
63321;BME280;49449;48.800;9.534;2023-05-07T11:21:35;98381.66;;;23.43;25.04
63321;BME280;49449;48.800;9.534;2023-05-07T11:24:04;98367.53;;;23.29;25.92
63321;BME280;49449;48.800;9.534;2023-05-07T11:26:45;98373.38;;;23.14;26.55
63321;BME280;49449;48.800;9.534;2023-05-07T11:29:17;98375.94;;;23.28;25.78
63321;BME280;49449;48.800;9.534;2023-05-07T11:31:50;98370.09;;;23.34;25.31
63321;BME280;49449;48.800;9.534;2023-05-07T11:34:22;98369.44;;;23.55;24.56
63321;BME280;49449;48.800;9.534;2023-05-07T11:36:55;98373.09;;;23.76;24.26
63321;BME280;49449;48.800;9.534;2023-05-07T11:39:27;98371.19;;;23.77;24.17
63321;BME280;49449;48.800;9.534;2023-05-07T11:42:00;98369.59;;;23.58;24.78
63321;BME280;49449;48.800;9.534;2023-05-07T11:44:42;98372.16;;;23.37;24.45
63321;BME280;49449;48.800;9.534;2023-05-07T11:47:17;98378.50;;;23.41;23.91
63321;BME280;49449;48.800;9.534;2023-05-07T11:49:47;98366.59;;;23.60;22.38
63321;BME280;49449;48.800;9.534;2023-05-07T11:52:17;98364.53;;;23.74;21.83
63321;BME280;49449;48.800;9.534;2023-05-07T11:54:49;98361.50;;;23.67;22.84
63321;BME280;49449;48.800;9.534;2023-05-07T11:57:21;98360.88;;;23.70;23.15
63321;BME280;49449;48.800;9.534;2023-05-07T11:59:53;98359.63;;;23.59;22.51
63321;BME280;49449;48.800;9.534;2023-05-07T12:02:23;98359.31;;;23.60;23.13
63321;BME280;49449;48.800;9.534;2023-05-07T12:04:54;98348.03;;;23.67;23.56
63321;BME280;49449;48.800;9.534;2023-05-07T12:07:24;98352.81;;;23.44;23.75
63321;BME280;49449;48.800;9.534;2023-05-07T12:09:53;98356.75;;;23.29;24.72
63321;BME280;49449;48.800;9.534;2023-05-07T12:12:26;98365.66;;;23.38;25.38
63321;BME280;49449;48.800;9.534;2023-05-07T12:14:57;98367.09;;;23.36;25.97
63321;BME280;49449;48.800;9.534;2023-05-07T12:17:26;98372.91;;;23.20;25.84
63321;BME280;49449;48.800;9.534;2023-05-07T12:19:57;98372.28;;;23.23;26.37
63321;BME280;49449;48.800;9.534;2023-05-07T12:22:26;98377.50;;;23.11;26.80
63321;BME280;49449;48.800;9.534;2023-05-07T12:24:57;98367.03;;;23.10;25.02
63321;BME280;49449;48.800;9.534;2023-05-07T12:27:26;98367.16;;;22.96;24.98
63321;BME280;49449;48.800;9.534;2023-05-07T12:29:57;98364.47;;;22.96;24.72
63321;BME280;49449;48.800;9.534;2023-05-07T12:32:25;98370.78;;;22.82;25.73
63321;BME280;49449;48.800;9.534;2023-05-07T12:34:53;98365.91;;;22.93;25.22
63321;BME280;49449;48.800;9.534;2023-05-07T12:37:23;98365.91;;;23.02;24.65
63321;BME280;49449;48.800;9.534;2023-05-07T12:40:07;98369.22;;;22.90;23.51
63321;BME280;49449;48.800;9.534;2023-05-07T12:42:37;98369.25;;;22.99;23.89
63321;BME280;49449;48.800;9.534;2023-05-07T12:45:09;98376.84;;;22.88;23.26
63321;BME280;49449;48.800;9.534;2023-05-07T12:47:37;98372.22;;;22.89;24.25
63321;BME280;49449;48.800;9.534;2023-05-07T12:50:07;98370.78;;;22.82;24.26
63321;BME280;49449;48.800;9.534;2023-05-07T12:52:36;98375.31;;;22.73;23.64
63321;BME280;49449;48.800;9.534;2023-05-07T12:55:05;98385.22;;;22.46;23.96
63321;BME280;49449;48.800;9.534;2023-05-07T12:57:39;98383.59;;;22.45;24.27
63321;BME280;49449;48.800;9.534;2023-05-07T13:00:08;98386.28;;;22.37;24.74
63321;BME280;49449;48.800;9.534;2023-05-07T13:02:38;98385.47;;;22.36;24.87
63321;BME280;49449;48.800;9.534;2023-05-07T13:05:06;98391.28;;;22.29;25.80
63321;BME280;49449;48.800;9.534;2023-05-07T13:07:35;98391.19;;;22.12;25.39
63321;BME280;49449;48.800;9.534;2023-05-07T13:10:04;98387.16;;;22.23;25.06
63321;BME280;49449;48.800;9.534;2023-05-07T13:12:32;98392.78;;;22.13;25.25